createdAt,value
2022-10-28T00:00:14.288Z,1.40
2022-10-28T00:05:18.790Z,1.70
2022-10-28T00:10:22.036Z,1.40
2022-10-28T00:15:25.496Z,1.50
2022-10-28T00:20:31.660Z,1.67
2022-10-28T00:25:34.779Z,1.43
2022-10-28T00:30:38.477Z,2.50
2022-10-28T00:35:42.968Z,1.90
2022-10-28T00:40:46.181Z,1.87
2022-10-28T00:45:49.501Z,1.50
2022-10-28T00:50:54.065Z,1.50
2022-10-28T00:55:58.500Z,1.80
2022-10-28T01:01:01.857Z,1.70
2022-10-28T01:06:07.910Z,1.60
2022-10-28T01:11:27.707Z,1.53
2022-10-28T01:16:43.360Z,1.60
2022-10-28T01:22:11.195Z,2.03
2022-10-28T01:27:44.872Z,1.70
2022-10-28T01:33:03.624Z,1.70
2022-10-28T01:38:18.936Z,1.70
2022-10-28T01:43:27.951Z,1.53
2022-10-28T01:53:50.170Z,1.50
2022-10-28T01:58:56.658Z,1.60
2022-10-28T02:04:01.328Z,1.47
2022-10-28T02:09:15.994Z,1.50
2022-10-28T02:14:31.996Z,1.20
2022-10-28T02:19:44.208Z,1.33
2022-10-28T02:24:56.545Z,1.47
2022-10-28T02:30:04.563Z,1.37
2022-10-28T02:35:15.118Z,1.60
2022-10-28T02:40:23.037Z,1.40
2022-10-28T02:45:30.819Z,1.40
2022-10-28T02:50:39.671Z,1.27
2022-10-28T02:55:47.775Z,1.43
2022-10-28T03:00:52.036Z,1.17
2022-10-28T03:05:56.849Z,1.57
2022-10-28T03:10:59.972Z,1.43
2022-10-28T03:16:03.235Z,1.40
2022-10-28T03:21:08.093Z,2.10
2022-10-28T03:26:11.544Z,1.57
2022-10-28T03:31:15.159Z,1.97
2022-10-28T03:36:19.686Z,1.70
2022-10-28T03:41:23.042Z,1.70
2022-10-28T03:46:26.300Z,2.00
2022-10-28T03:51:31.398Z,1.90
2022-10-28T03:56:34.681Z,1.97
2022-10-28T04:01:38.153Z,1.77
2022-10-28T04:06:42.711Z,1.10
2022-10-28T04:11:49.378Z,1.37
2022-10-28T04:16:52.708Z,1.30
2022-10-28T04:21:57.182Z,1.30
2022-10-28T04:27:00.308Z,1.70
2022-10-28T04:32:03.572Z,1.40
2022-10-28T04:37:08.154Z,1.23
2022-10-28T04:42:11.341Z,1.20
2022-10-28T04:47:14.513Z,1.50
2022-10-28T04:52:19.125Z,1.23
2022-10-28T04:57:22.355Z,1.10
2022-10-28T05:02:25.651Z,0.90
2022-10-28T05:07:30.668Z,0.83
2022-10-28T05:12:33.735Z,0.73
2022-10-28T05:17:36.850Z,0.57
2022-10-28T05:22:47.074Z,0.60
2022-10-28T05:27:50.507Z,0.90
2022-10-28T05:33:01.000Z,1.40
2022-10-28T05:38:06.489Z,1.50
2022-10-28T05:43:11.349Z,1.73
2022-10-28T05:48:14.410Z,1.70
2022-10-28T05:53:19.230Z,1.70
2022-10-28T05:58:22.501Z,1.40
2022-10-28T06:03:30.149Z,1.30
2022-10-28T06:08:36.275Z,1.30
2022-10-28T06:13:37.978Z,1.40
2022-10-28T06:18:41.060Z,1.07
2022-10-28T06:23:47.629Z,0.90
2022-10-28T06:28:50.889Z,1.00
2022-10-28T06:33:54.110Z,1.30
2022-10-28T06:38:59.402Z,1.80
2022-10-28T06:44:02.710Z,1.50
2022-10-28T06:49:09.052Z,1.53
2022-10-28T06:54:14.282Z,1.67
2022-10-28T06:59:17.512Z,1.67
2022-10-28T07:04:21.066Z,1.80
2022-10-28T07:09:25.558Z,1.97
2022-10-28T07:14:28.870Z,1.70
2022-10-28T07:19:32.553Z,1.23
2022-10-28T07:24:37.241Z,1.50
2022-10-28T07:29:40.682Z,1.40
2022-10-28T07:34:44.317Z,1.30
2022-10-28T07:39:48.806Z,1.23
2022-10-28T07:44:52.193Z,1.13
2022-10-28T07:49:55.439Z,1.57
2022-10-28T07:55:00.274Z,1.30
2022-10-28T08:00:04.306Z,1.20
2022-10-28T08:05:13.704Z,1.30
2022-10-28T08:10:18.446Z,1.83
2022-10-28T08:15:23.766Z,1.67
2022-10-28T08:20:26.989Z,1.60
2022-10-28T08:25:31.699Z,1.53
2022-10-28T08:30:50.317Z,1.67
2022-10-28T08:35:58.236Z,1.30
2022-10-28T08:41:16.732Z,1.80
2022-10-28T08:46:30.979Z,1.47
2022-10-28T08:51:39.858Z,1.90
2022-10-28T08:56:47.559Z,1.40
2022-10-28T09:01:57.522Z,2.53
2022-10-28T09:07:00.690Z,1.80
2022-10-28T09:12:19.384Z,1.90
2022-10-28T09:17:31.619Z,1.90
2022-10-28T09:22:42.367Z,1.70
2022-10-28T09:27:56.067Z,1.73
2022-10-28T09:33:15.191Z,1.93
2022-10-28T09:38:27.448Z,2.13
2022-10-28T09:43:35.197Z,1.60
2022-10-28T09:48:42.353Z,1.97
2022-10-28T09:53:49.849Z,1.73
2022-10-28T09:58:56.647Z,2.20
2022-10-28T10:04:00.141Z,2.20
2022-10-28T10:09:04.434Z,1.93
2022-10-28T10:14:11.411Z,1.97
2022-10-28T10:19:14.952Z,1.77
2022-10-28T10:24:31.258Z,2.03
2022-10-28T10:29:36.181Z,1.73
2022-10-28T10:34:39.538Z,1.93
2022-10-28T10:39:42.633Z,1.50
2022-10-28T10:44:53.692Z,1.70
2022-10-28T10:50:21.119Z,2.00
2022-10-28T10:55:32.727Z,1.43
2022-10-28T11:00:45.537Z,2.10
2022-10-28T11:05:55.112Z,1.73
2022-10-28T11:11:22.127Z,2.00
2022-10-28T11:16:26.654Z,1.40
2022-10-28T11:21:50.940Z,1.80
2022-10-28T11:27:04.516Z,1.80
2022-10-28T11:32:31.770Z,1.53
2022-10-28T11:37:46.488Z,1.90
2022-10-28T11:43:03.158Z,1.30
2022-10-28T11:48:22.716Z,2.13
2022-10-28T11:53:51.323Z,1.50
2022-10-28T11:59:10.513Z,1.70
2022-10-28T12:04:57.531Z,1.63
2022-10-28T12:10:31.620Z,1.50
2022-10-28T12:15:42.048Z,1.37
2022-10-28T12:20:53.330Z,1.27
2022-10-28T12:25:58.783Z,1.50
2022-10-28T12:31:03.622Z,1.30
2022-10-28T12:36:24.545Z,1.17
2022-10-28T12:41:33.372Z,1.33
2022-10-28T12:46:44.881Z,1.80
2022-10-28T12:51:49.689Z,1.50
2022-10-28T12:57:02.723Z,1.13
2022-10-28T13:02:16.377Z,1.30
2022-10-28T13:07:56.190Z,1.47
2022-10-28T13:13:36.821Z,1.20
2022-10-28T13:19:00.192Z,1.40
2022-10-28T13:24:12.551Z,1.50
2022-10-28T13:29:22.939Z,1.50
2022-10-28T13:34:33.748Z,1.83
2022-10-28T13:39:46.980Z,1.43
2022-10-28T13:44:51.947Z,1.50
2022-10-28T13:50:23.414Z,1.90
2022-10-28T13:55:42.937Z,1.50
2022-10-28T14:00:47.928Z,1.50
2022-10-28T14:05:56.658Z,1.47
2022-10-28T14:11:07.059Z,1.20
2022-10-28T14:16:24.591Z,1.30
2022-10-28T14:21:41.325Z,1.13
2022-10-28T14:27:30.492Z,0.90
2022-10-28T14:32:43.962Z,1.10
2022-10-28T14:38:14.482Z,1.20
2022-10-28T14:43:35.165Z,0.87
2022-10-28T14:48:53.582Z,0.83
2022-10-28T14:53:59.834Z,0.97
2022-10-28T14:59:19.824Z,0.80
2022-10-28T15:04:24.561Z,0.93
2022-10-28T15:09:30.423Z,0.80
2022-10-28T15:14:37.470Z,1.03
2022-10-28T15:19:42.946Z,1.10
2022-10-28T15:25:00.387Z,0.93
2022-10-28T15:30:04.270Z,0.87
2022-10-28T15:35:38.104Z,0.80
2022-10-28T15:40:41.630Z,0.87
2022-10-28T15:45:46.065Z,0.93
2022-10-28T15:51:16.000Z,1.00
2022-10-28T15:56:25.099Z,1.03
2022-10-28T16:01:31.774Z,1.10
2022-10-28T16:06:37.961Z,0.80
2022-10-28T16:11:45.543Z,0.83
2022-10-28T16:16:48.820Z,0.73
2022-10-28T16:21:53.350Z,0.93
2022-10-28T16:27:14.396Z,0.80
2022-10-28T16:32:19.073Z,1.00
2022-10-28T16:37:25.800Z,1.00
2022-10-28T16:42:28.875Z,1.03
2022-10-28T16:47:32.070Z,0.77
2022-10-28T16:52:38.478Z,0.83
2022-10-28T16:57:43.027Z,1.00
2022-10-28T17:02:50.591Z,0.87
2022-10-28T17:07:56.271Z,0.80
2022-10-28T17:12:59.627Z,1.00
2022-10-28T17:18:02.745Z,1.10
2022-10-28T17:23:07.417Z,0.80
2022-10-28T17:28:10.432Z,0.77
2022-10-28T17:33:13.531Z,1.07
2022-10-28T17:38:17.976Z,0.73
2022-10-28T17:43:21.014Z,1.17
2022-10-28T17:48:24.125Z,1.13
2022-10-28T17:53:28.685Z,1.10
2022-10-28T17:58:32.193Z,1.10
2022-10-28T18:03:38.973Z,1.00
2022-10-28T18:08:46.955Z,0.87
2022-10-28T18:13:52.761Z,1.00
2022-10-28T18:18:56.249Z,0.80
2022-10-28T18:24:04.429Z,0.93
2022-10-28T18:29:09.958Z,0.90
2022-10-28T18:34:13.188Z,1.10
2022-10-28T18:39:18.076Z,1.00
2022-10-28T18:44:24.144Z,1.00
2022-10-28T18:49:30.232Z,1.10
2022-10-28T18:54:35.164Z,0.80
2022-10-28T18:59:52.419Z,0.70
2022-10-28T19:05:01.439Z,0.90
2022-10-28T19:10:07.007Z,0.73
2022-10-28T19:15:10.625Z,0.93
2022-10-28T19:20:15.091Z,0.97
2022-10-28T19:25:19.563Z,0.77
2022-10-28T19:30:22.639Z,1.03
2022-10-28T19:35:25.747Z,1.00
2022-10-28T19:40:30.195Z,1.07
2022-10-28T19:45:33.259Z,1.07
2022-10-28T19:50:40.672Z,0.93
2022-10-28T19:55:45.634Z,1.00
2022-10-28T20:00:48.780Z,1.10
2022-10-28T20:06:03.480Z,0.83
2022-10-28T20:11:09.873Z,0.83
2022-10-28T20:16:14.752Z,1.00
2022-10-28T20:21:19.680Z,1.10
2022-10-28T20:26:28.449Z,0.70
2022-10-28T20:31:33.295Z,1.27
2022-10-28T20:36:37.789Z,1.00
2022-10-28T20:41:43.208Z,0.90
2022-10-28T20:46:47.789Z,0.80
2022-10-28T20:51:50.936Z,0.90
2022-10-28T20:56:55.332Z,0.90
2022-10-28T21:01:58.439Z,0.80
2022-10-28T21:07:01.815Z,1.10
2022-10-28T21:12:06.788Z,0.87
2022-10-28T21:17:09.899Z,0.90
2022-10-28T21:22:12.936Z,0.93
2022-10-28T21:27:17.428Z,0.90
2022-10-28T21:32:20.548Z,1.00
2022-10-28T21:37:23.709Z,0.90
2022-10-28T21:42:28.458Z,1.00
2022-10-28T21:47:31.644Z,1.00
2022-10-28T21:52:34.713Z,1.00
2022-10-28T21:57:39.169Z,0.87
2022-10-28T22:02:42.473Z,0.90
2022-10-28T22:07:46.355Z,1.37
2022-10-28T22:12:53.020Z,0.97
2022-10-28T22:17:56.435Z,1.00
2022-10-28T22:22:59.670Z,1.00
2022-10-28T22:28:04.155Z,0.93
2022-10-28T22:33:07.475Z,1.10
2022-10-28T22:38:10.594Z,1.00
2022-10-28T22:43:15.092Z,0.90
2022-10-28T22:48:18.175Z,0.90
2022-10-28T22:53:21.271Z,0.80
2022-10-28T22:58:27.373Z,1.20
2022-10-28T23:03:36.085Z,1.00
2022-10-28T23:08:40.102Z,0.90
2022-10-28T23:13:44.626Z,0.90
2022-10-28T23:18:48.038Z,0.90
2022-10-28T23:23:54.213Z,0.97
2022-10-28T23:29:00.655Z,0.90
2022-10-28T23:34:03.850Z,0.93
2022-10-28T23:39:06.973Z,1.03
2022-10-28T23:44:11.420Z,1.03
2022-10-28T23:49:14.525Z,1.00
2022-10-28T23:54:17.605Z,1.30
2022-10-28T23:59:22.104Z,0.90
